Time;durP1;ratioP1;P1;durP2;ratioP2;P2;SDS_P1;SDS_P2;PMS_P1;PMS_P2;Temp;Humidity;BMP_temperature;BMP_pressure;BME280_temperature;BME280_humidity;BME280_pressure;Samples;Min_cycle;Max_cycle;Signal;HPM_P1;HPM_P2
2021/09/03 00:00:13;;;;;;;1.40;0.90;;;14.10;99.90;;;;;;4973952;28;20485;-84
2021/09/03 00:02:41;;;;;;;2.23;1.00;;;14.00;99.90;;;;;;4973620;28;20456;-84
2021/09/03 00:05:11;;;;;;;1.37;0.73;;;14.00;99.90;;;;;;4973785;28;20449;-84
2021/09/03 00:07:38;;;;;;;0.70;0.70;;;14.00;99.90;;;;;;4973759;28;20524;-84
2021/09/03 00:10:08;;;;;;;1.27;0.90;;;13.90;99.90;;;;;;4973978;28;20445;-84
2021/09/03 00:12:35;;;;;;;2.70;0.70;;;13.90;99.90;;;;;;4973999;28;20438;-84
2021/09/03 00:15:02;;;;;;;1.00;0.73;;;13.90;99.90;;;;;;4973979;28;20969;-84
2021/09/03 00:17:29;;;;;;;0.63;0.63;;;13.90;99.90;;;;;;4977365;28;20453;-84
2021/09/03 00:19:55;;;;;;;1.07;0.87;;;13.80;99.90;;;;;;4977292;28;20481;-84
2021/09/03 00:22:22;;;;;;;1.53;0.87;;;13.80;99.90;;;;;;4977103;28;20453;-84
2021/09/03 00:24:49;;;;;;;2.83;0.97;;;13.80;99.90;;;;;;4977130;28;20848;-84
2021/09/03 00:27:17;;;;;;;2.50;1.20;;;13.80;99.90;;;;;;4977344;28;20465;-84
2021/09/03 00:29:44;;;;;;;1.00;1.00;;;13.80;99.90;;;;;;4977169;28;20452;-84
2021/09/03 00:32:10;;;;;;;1.20;0.70;;;13.70;99.90;;;;;;4976929;28;20444;-84
2021/09/03 00:34:37;;;;;;;0.53;0.53;;;13.70;99.90;;;;;;4977515;28;20474;-84
2021/09/03 00:37:04;;;;;;;3.63;1.50;;;13.60;99.90;;;;;;4976761;28;20833;-84
2021/09/03 00:39:31;;;;;;;2.10;0.70;;;13.60;99.90;;;;;;4976929;28;20489;-84
2021/09/03 00:41:58;;;;;;;2.17;1.80;;;13.60;99.90;;;;;;4976761;28;20449;-84
2021/09/03 00:44:26;;;;;;;0.60;0.60;;;13.60;99.90;;;;;;4976622;28;20454;-84
2021/09/03 00:46:52;;;;;;;0.70;0.50;;;13.60;99.90;;;;;;4976539;28;20953;-84
2021/09/03 00:49:19;;;;;;;0.50;0.50;;;13.50;99.90;;;;;;4976691;28;20977;-84
2021/09/03 00:51:48;;;;;;;1.30;0.90;;;13.50;99.90;;;;;;4976590;28;20799;-84
2021/09/03 00:54:15;;;;;;;0.97;0.97;;;13.40;99.90;;;;;;4976654;28;20474;-84
2021/09/03 00:56:42;;;;;;;0.60;0.60;;;13.40;99.90;;;;;;4976769;28;20453;-84
2021/09/03 00:59:08;;;;;;;1.80;0.87;;;13.40;99.90;;;;;;4976649;28;20493;-84
2021/09/03 01:01:36;;;;;;;0.67;0.60;;;13.40;99.90;;;;;;4976861;28;20473;-84
2021/09/03 01:04:03;;;;;;;2.40;0.97;;;13.40;99.90;;;;;;4976517;28;20469;-84
2021/09/03 01:06:30;;;;;;;1.33;0.77;;;13.30;99.90;;;;;;4976554;28;20456;-84
2021/09/03 01:08:57;;;;;;;1.60;0.73;;;13.30;99.90;;;;;;4976501;28;20446;-84
2021/09/03 01:11:24;;;;;;;0.80;0.60;;;13.30;99.90;;;;;;4976472;28;20445;-84
2021/09/03 01:13:51;;;;;;;2.23;1.10;;;13.20;99.90;;;;;;4976032;28;20849;-84
2021/09/03 01:16:18;;;;;;;4.33;0.90;;;13.20;99.90;;;;;;4976302;28;20449;-84
2021/09/03 01:18:46;;;;;;;2.03;1.33;;;13.20;99.90;;;;;;4976230;28;20481;-84
2021/09/03 01:21:13;;;;;;;0.60;0.60;;;13.20;99.90;;;;;;4975996;28;20945;-84
2021/09/03 01:23:41;;;;;;;1.63;0.77;;;13.20;99.90;;;;;;4976220;28;20981;-84
2021/09/03 01:26:08;;;;;;;0.80;0.70;;;13.20;99.90;;;;;;4975835;28;20461;-84
2021/09/03 01:28:35;;;;;;;3.40;0.80;;;13.10;99.90;;;;;;4976208;28;20453;-84
2021/09/03 01:31:01;;;;;;;1.50;0.50;;;13.10;99.90;;;;;;4976091;28;20457;-84
2021/09/03 01:33:28;;;;;;;2.63;0.90;;;13.20;99.90;;;;;;4975968;28;20477;-84
2021/09/03 01:35:55;;;;;;;0.80;0.40;;;13.20;99.90;;;;;;4976011;28;20449;-85
2021/09/03 01:38:22;;;;;;;3.23;0.87;;;13.20;99.90;;;;;;4975662;28;20800;-85
2021/09/03 01:40:50;;;;;;;0.80;0.80;;;13.20;99.90;;;;;;4975630;28;20481;-85
2021/09/03 01:43:17;;;;;;;3.13;0.60;;;13.20;99.90;;;;;;4975470;28;20472;-82
2021/09/03 01:45:44;;;;;;;2.80;1.00;;;13.10;99.90;;;;;;4975898;28;20450;-83
2021/09/03 01:48:10;;;;;;;0.60;0.53;;;13.10;99.90;;;;;;4975588;28;20477;-83
2021/09/03 01:50:37;;;;;;;1.53;0.67;;;13.10;99.90;;;;;;4975404;28;20453;-82
2021/09/03 01:53:04;;;;;;;3.50;0.87;;;13.00;99.90;;;;;;4975551;28;20465;-82
2021/09/03 01:55:31;;;;;;;2.80;1.10;;;13.00;99.90;;;;;;4975561;28;20456;-85
2021/09/03 01:57:59;;;;;;;1.33;0.70;;;13.00;99.90;;;;;;4975466;28;20434;-85
2021/09/03 02:00:26;;;;;;;4.93;0.80;;;12.90;99.90;;;;;;4975401;28;20496;-85
2021/09/03 02:02:53;;;;;;;1.93;1.00;;;12.90;99.90;;;;;;4975377;28;20449;-85
2021/09/03 02:05:19;;;;;;;0.83;0.70;;;12.90;99.90;;;;;;4975382;28;20449;-85
2021/09/03 02:07:46;;;;;;;0.70;0.63;;;12.90;99.90;;;;;;4975354;28;20453;-85
2021/09/03 02:10:13;;;;;;;1.33;1.23;;;12.80;99.90;;;;;;4975073;28;20961;-85
2021/09/03 02:12:40;;;;;;;0.50;0.50;;;12.80;99.90;;;;;;4975482;28;20453;-85
2021/09/03 02:15:09;;;;;;;1.10;0.87;;;12.80;99.90;;;;;;4975558;28;20452;-85
2021/09/03 02:17:36;;;;;;;0.60;0.60;;;12.80;99.90;;;;;;4975160;28;20536;-85
2021/09/03 02:20:04;;;;;;;1.73;1.13;;;12.80;99.90;;;;;;4974816;28;20488;-85
2021/09/03 02:22:31;;;;;;;1.03;0.80;;;12.70;99.90;;;;;;4975180;28;20450;-86
2021/09/03 02:24:57;;;;;;;1.57;0.50;;;12.70;99.90;;;;;;4974983;28;20465;-86
2021/09/03 02:27:24;;;;;;;2.33;0.80;;;12.70;99.90;;;;;;4975025;28;20453;-86
2021/09/03 02:29:51;;;;;;;0.50;0.50;;;12.70;99.90;;;;;;4974821;28;20945;-85
2021/09/03 02:32:20;;;;;;;0.60;0.53;;;12.70;99.90;;;;;;4974737;28;20953;-86
2021/09/03 02:34:47;;;;;;;2.23;0.87;;;12.70;99.90;;;;;;4974676;28;20458;-86
2021/09/03 02:37:14;;;;;;;0.90;0.50;;;12.60;99.90;;;;;;4974865;28;20445;-86
2021/09/03 02:39:41;;;;;;;0.63;0.60;;;12.60;99.90;;;;;;4974337;28;20493;-85
2021/09/03 02:42:08;;;;;;;0.70;0.63;;;12.60;99.90;;;;;;4974896;28;20450;-86
2021/09/03 02:44:35;;;;;;;2.20;0.97;;;12.50;99.90;;;;;;4974707;28;20473;-86
2021/09/03 02:47:01;;;;;;;3.80;0.70;;;12.50;99.90;;;;;;4974800;28;20441;-86
2021/09/03 02:49:30;;;;;;;0.63;0.63;;;12.50;99.90;;;;;;4974503;28;20484;-86
2021/09/03 02:51:56;;;;;;;1.70;1.00;;;12.50;99.90;;;;;;4975152;28;20461;-86
2021/09/03 02:54:23;;;;;;;0.80;0.57;;;12.40;99.90;;;;;;4974914;28;20484;-86
2021/09/03 02:56:50;;;;;;;1.03;0.90;;;12.40;99.90;;;;;;4974706;28;20441;-85
2021/09/03 02:59:17;;;;;;;1.27;0.63;;;12.40;99.90;;;;;;4974360;28;21012;-86
2021/09/03 03:01:43;;;;;;;1.97;0.70;;;12.40;99.90;;;;;;4974622;28;20937;-86
2021/09/03 03:04:10;;;;;;;5.47;1.30;;;12.40;99.90;;;;;;4974459;28;20851;-85
2021/09/03 03:06:38;;;;;;;2.10;0.60;;;12.40;99.90;;;;;;4974935;28;20449;-86
2021/09/03 03:09:05;;;;;;;3.03;0.83;;;12.30;99.90;;;;;;4974557;28;20445;-85
2021/09/03 03:11:31;;;;;;;0.60;0.60;;;12.30;99.90;;;;;;4974272;28;20445;-86
2021/09/03 03:14:03;;;;;;;0.90;0.90;;;12.30;99.90;;;;;;4974228;28;20465;-86
2021/09/03 03:16:30;;;;;;;0.53;0.53;;;12.30;99.90;;;;;;4974490;28;20438;-86
2021/09/03 03:18:57;;;;;;;1.70;0.97;;;12.30;99.90;;;;;;4974514;28;20821;-86
2021/09/03 03:21:23;;;;;;;2.83;1.07;;;12.30;99.90;;;;;;4974373;28;20492;-86
2021/09/03 03:23:51;;;;;;;1.27;0.60;;;12.30;99.90;;;;;;4974331;28;20977;-86
2021/09/03 03:26:18;;;;;;;0.43;0.43;;;12.40;99.90;;;;;;4974223;28;20438;-86
2021/09/03 03:28:45;;;;;;;1.23;0.90;;;12.30;99.90;;;;;;4974172;28;20437;-86
2021/09/03 03:31:12;;;;;;;0.73;0.73;;;12.30;99.90;;;;;;4974338;28;20453;-86
2021/09/03 03:33:38;;;;;;;0.70;0.70;;;12.30;99.90;;;;;;4974055;28;20838;-86
2021/09/03 03:36:05;;;;;;;0.73;0.60;;;12.20;99.90;;;;;;4974245;28;20452;-85
2021/09/03 03:38:32;;;;;;;1.00;0.70;;;12.20;99.90;;;;;;4973956;28;20456;-85
2021/09/03 03:41:00;;;;;;;1.87;0.80;;;12.20;99.90;;;;;;4973890;28;21004;-85
2021/09/03 03:43:27;;;;;;;2.93;0.90;;;12.20;99.90;;;;;;4974200;28;20484;-86
2021/09/03 03:45:55;;;;;;;1.03;0.67;;;12.20;99.90;;;;;;4973999;28;20441;-86
2021/09/03 03:48:23;;;;;;;2.03;1.40;;;12.20;99.90;;;;;;4973864;28;20497;-86
2021/09/03 03:50:49;;;;;;;0.60;0.60;;;12.20;99.90;;;;;;4977352;28;20457;-85
2021/09/03 03:53:16;;;;;;;2.30;1.00;;;12.10;99.90;;;;;;4977486;28;20476;-86
2021/09/03 03:55:43;;;;;;;0.50;0.50;;;12.20;99.90;;;;;;4977585;28;20441;-86
2021/09/03 03:58:11;;;;;;;1.57;0.67;;;12.10;99.90;;;;;;4977794;28;20448;-84
2021/09/03 04:00:38;;;;;;;3.90;0.93;;;12.10;99.90;;;;;;4977567;28;20500;-84
2021/09/03 04:03:04;;;;;;;1.07;0.60;;;12.00;99.90;;;;;;4977818;28;20462;-84
2021/09/03 04:05:31;;;;;;;1.17;0.77;;;12.00;99.90;;;;;;4977666;28;20433;-84
2021/09/03 04:07:58;;;;;;;1.27;0.87;;;12.00;99.90;;;;;;4977225;28;20837;-84
2021/09/03 04:10:25;;;;;;;0.80;0.80;;;12.00;99.90;;;;;;4977479;28;20449;-84
2021/09/03 04:12:52;;;;;;;0.80;0.43;;;12.00;99.90;;;;;;4977443;28;20452;-84
2021/09/03 04:15:20;;;;;;;1.20;0.70;;;11.90;99.90;;;;;;4977387;28;20449;-84
2021/09/03 04:17:47;;;;;;;0.97;0.87;;;11.90;99.90;;;;;;4977066;28;20817;-84
2021/09/03 04:20:14;;;;;;;1.57;0.50;;;11.90;99.90;;;;;;4976937;28;20492;-84
2021/09/03 04:22:41;;;;;;;2.10;1.37;;;11.90;99.90;;;;;;4977240;28;20460;-84
2021/09/03 04:25:09;;;;;;;1.17;0.70;;;11.90;99.90;;;;;;4977254;28;20453;-84
2021/09/03 04:27:36;;;;;;;0.93;0.80;;;11.80;99.90;;;;;;4977274;28;20453;-84
2021/09/03 04:30:03;;;;;;;1.97;0.50;;;11.80;99.90;;;;;;4977441;28;20446;-84
2021/09/03 04:32:31;;;;;;;0.80;0.57;;;11.80;99.90;;;;;;4977140;28;20840;-84
2021/09/03 04:34:58;;;;;;;1.30;0.73;;;11.70;99.90;;;;;;4977023;28;20477;-84
2021/09/03 04:37:25;;;;;;;1.00;0.60;;;11.70;99.90;;;;;;4977270;28;20449;-84
2021/09/03 04:39:52;;;;;;;2.90;0.97;;;11.70;99.90;;;;;;4976601;28;20492;-84
2021/09/03 04:42:18;;;;;;;0.60;0.60;;;11.70;99.90;;;;;;4976926;28;20446;-84
2021/09/03 04:44:45;;;;;;;3.60;1.87;;;11.70;99.90;;;;;;4976582;28;20458;-84
2021/09/03 04:47:12;;;;;;;1.40;1.30;;;11.70;99.90;;;;;;4976876;28;20445;-84
2021/09/03 04:49:40;;;;;;;1.17;0.80;;;11.70;99.90;;;;;;4976383;28;20481;-84
2021/09/03 04:52:07;;;;;;;1.53;0.80;;;11.70;99.90;;;;;;4976782;28;20453;-84
2021/09/03 04:54:34;;;;;;;1.10;0.80;;;11.70;99.90;;;;;;4976719;28;20477;-84
2021/09/03 04:57:00;;;;;;;1.23;0.60;;;11.60;99.90;;;;;;4976446;28;20441;-84
2021/09/03 04:59:27;;;;;;;0.97;0.83;;;11.60;99.90;;;;;;4976879;28;20453;-85
2021/09/03 05:01:54;;;;;;;0.50;0.40;;;11.60;99.90;;;;;;4975523;28;20495;-85
2021/09/03 05:04:20;;;;;;;2.30;1.10;;;11.70;99.90;;;;;;4976393;28;20473;-84
2021/09/03 05:06:48;;;;;;;2.97;0.83;;;11.70;99.90;;;;;;4976154;28;20958;-83
2021/09/03 05:09:15;;;;;;;3.27;1.60;;;11.70;99.90;;;;;;4976429;28;20457;-84
2021/09/03 05:11:42;;;;;;;3.07;0.97;;;11.70;99.90;;;;;;4976405;28;20445;-84
2021/09/03 05:14:09;;;;;;;1.67;0.90;;;11.80;99.90;;;;;;4976047;28;20845;-84
2021/09/03 05:16:35;;;;;;;0.50;0.50;;;11.80;99.90;;;;;;4976282;28;20464;-85
2021/09/03 05:19:02;;;;;;;0.80;0.60;;;11.80;99.90;;;;;;4976338;28;20438;-84
2021/09/03 05:21:29;;;;;;;0.83;0.50;;;11.80;99.90;;;;;;4975866;28;21019;-84
2021/09/03 05:23:57;;;;;;;1.27;0.70;;;11.80;99.90;;;;;;4976383;28;20465;-85
2021/09/03 05:26:23;;;;;;;1.80;1.00;;;11.80;99.90;;;;;;4976133;28;20437;-85
2021/09/03 05:28:50;;;;;;;0.80;0.50;;;11.80;99.90;;;;;;4976066;28;20448;-84
2021/09/03 05:31:17;;;;;;;1.00;0.80;;;11.80;99.90;;;;;;4976044;28;20464;-84
2021/09/03 05:33:44;;;;;;;2.10;0.80;;;11.80;99.90;;;;;;4975628;28;20469;-84
2021/09/03 05:36:10;;;;;;;0.70;0.60;;;11.80;99.90;;;;;;4975945;28;20930;-84
2021/09/03 05:38:37;;;;;;;2.60;1.30;;;11.90;99.90;;;;;;4975914;28;20433;-84
2021/09/03 05:41:05;;;;;;;0.80;0.50;;;11.90;99.90;;;;;;4975750;28;20868;-84
2021/09/03 05:43:32;;;;;;;1.20;0.73;;;12.00;99.90;;;;;;4975489;28;21024;-84
2021/09/03 05:45:59;;;;;;;1.00;0.87;;;12.00;99.90;;;;;;4975759;28;20454;-82
2021/09/03 05:48:25;;;;;;;0.87;0.80;;;12.00;99.90;;;;;;4975156;28;20493;-82
2021/09/03 05:50:52;;;;;;;1.17;0.80;;;12.10;99.90;;;;;;4975631;28;20445;-82
2021/09/03 05:53:19;;;;;;;2.40;0.50;;;12.10;99.90;;;;;;4975270;28;20956;-82
2021/09/03 05:55:46;;;;;;;0.90;0.90;;;12.10;99.90;;;;;;4975241;28;20945;-82
2021/09/03 05:58:14;;;;;;;1.23;0.83;;;12.10;99.90;;;;;;4975543;28;20456;-82
2021/09/03 06:00:41;;;;;;;1.67;0.70;;;12.20;99.90;;;;;;4975405;28;20489;-82
2021/09/03 06:03:07;;;;;;;3.43;0.80;;;12.20;99.90;;;;;;4975054;28;20981;-82
2021/09/03 06:05:34;;;;;;;7.30;1.90;;;12.20;99.90;;;;;;4975431;28;20453;-82
2021/09/03 06:08:01;;;;;;;1.17;0.60;;;12.30;99.90;;;;;;4974975;28;20828;-82
2021/09/03 06:10:27;;;;;;;1.73;1.03;;;12.30;99.90;;;;;;4975089;28;20446;-81
2021/09/03 06:12:54;;;;;;;1.73;1.00;;;12.30;99.90;;;;;;4974330;28;20457;-81
2021/09/03 06:15:22;;;;;;;1.70;0.83;;;12.40;99.90;;;;;;4975001;28;20944;-82
2021/09/03 06:17:49;;;;;;;2.20;0.90;;;12.40;99.90;;;;;;4975218;28;20449;-82
2021/09/03 06:20:16;;;;;;;4.93;0.90;;;12.50;99.90;;;;;;4975083;28;20457;-81
2021/09/03 06:22:43;;;;;;;1.50;1.40;;;12.60;99.90;;;;;;4975047;28;20457;-81
2021/09/03 06:25:10;;;;;;;1.20;1.07;;;12.70;99.90;;;;;;4975147;28;20441;-81
2021/09/03 06:27:38;;;;;;;2.20;0.80;;;12.90;99.90;;;;;;4975040;28;20453;-81
2021/09/03 06:30:06;;;;;;;1.67;0.77;;;13.10;99.90;;;;;;4974927;28;20508;-81
2021/09/03 06:32:35;;;;;;;0.80;0.63;;;13.20;99.90;;;;;;4975229;28;20472;-81
2021/09/03 06:35:04;;;;;;;1.53;1.00;;;13.40;99.90;;;;;;4974878;28;20533;-82
2021/09/03 06:37:32;;;;;;;1.47;0.90;;;13.50;99.90;;;;;;4975039;28;20488;-84
2021/09/03 06:39:59;;;;;;;1.30;0.80;;;13.60;99.90;;;;;;4975200;28;20449;-84
2021/09/03 06:42:28;;;;;;;1.73;1.03;;;13.90;99.90;;;;;;4974778;28;20481;-83
2021/09/03 06:44:55;;;;;;;1.87;1.00;;;14.10;99.90;;;;;;4974471;28;20549;-83
2021/09/03 06:47:22;;;;;;;2.07;1.83;;;14.30;99.90;;;;;;4974852;28;20448;-84
2021/09/03 06:49:50;;;;;;;2.37;1.20;;;14.40;99.90;;;;;;4974469;28;20492;-84
2021/09/03 06:52:17;;;;;;;4.17;0.83;;;14.60;99.90;;;;;;4975354;28;20465;-84
2021/09/03 06:54:44;;;;;;;0.83;0.83;;;14.60;99.90;;;;;;4974305;28;20810;-84
2021/09/03 06:57:11;;;;;;;1.23;1.10;;;14.80;99.90;;;;;;4974477;28;20957;-84
2021/09/03 06:59:37;;;;;;;2.90;1.47;;;15.00;99.90;;;;;;4974364;28;20437;-84
2021/09/03 07:02:04;;;;;;;1.07;0.60;;;15.20;99.90;;;;;;4974544;28;20466;-84
2021/09/03 07:04:31;;;;;;;1.30;1.20;;;15.20;99.90;;;;;;4974805;28;20548;-84
2021/09/03 07:06:59;;;;;;;2.30;0.80;;;15.40;99.90;;;;;;4974292;28;20434;-83
2021/09/03 07:09:26;;;;;;;1.10;1.00;;;15.40;99.90;;;;;;4974563;28;20441;-84
2021/09/03 07:11:52;;;;;;;1.47;1.00;;;15.50;99.90;;;;;;4974250;28;20440;-83
2021/09/03 07:14:19;;;;;;;1.53;1.17;;;15.70;99.90;;;;;;4974194;28;20962;-83
2021/09/03 07:16:46;;;;;;;1.90;1.30;;;15.80;99.90;;;;;;4974395;28;20449;-84
2021/09/03 07:19:13;;;;;;;1.20;1.10;;;15.80;99.90;;;;;;4974433;28;20456;-83
2021/09/03 07:21:40;;;;;;;1.33;0.80;;;15.90;99.90;;;;;;4974533;28;20491;-83
2021/09/03 07:24:08;;;;;;;5.03;1.17;;;16.00;99.90;;;;;;4974554;28;20462;-83
2021/09/03 07:26:35;;;;;;;4.37;0.90;;;16.20;99.90;;;;;;4978282;28;20456;-83
2021/09/03 07:29:03;;;;;;;0.80;0.80;;;16.30;99.90;;;;;;4978560;28;20449;-83
2021/09/03 07:31:30;;;;;;;3.73;1.30;;;16.50;99.90;;;;;;4978327;28;20449;-83
2021/09/03 07:33:57;;;;;;;1.50;1.40;;;16.50;99.90;;;;;;4978070;28;20481;-83
2021/09/03 07:36:24;;;;;;;3.90;1.33;;;16.60;99.90;;;;;;4978440;28;20460;-83
2021/09/03 07:38:50;;;;;;;1.10;0.77;;;16.80;99.90;;;;;;4978033;28;20449;-83
2021/09/03 07:41:18;;;;;;;1.23;0.90;;;16.90;99.90;;;;;;4978002;28;20485;-83
2021/09/03 07:43:45;;;;;;;1.57;0.87;;;17.00;99.90;;;;;;4977916;28;20472;-83
2021/09/03 07:46:12;;;;;;;0.80;0.73;;;17.10;99.90;;;;;;4977795;28;20791;-83
2021/09/03 07:48:39;;;;;;;1.50;0.90;;;17.10;99.90;;;;;;4977785;28;20480;-83
2021/09/03 07:51:05;;;;;;;4.47;1.80;;;17.10;99.90;;;;;;4977846;28;20445;-83
2021/09/03 07:53:32;;;;;;;1.27;1.17;;;17.20;99.90;;;;;;4977777;28;20477;-83
2021/09/03 07:55:59;;;;;;;2.10;1.30;;;17.30;99.90;;;;;;4977782;28;20460;-81
2021/09/03 07:58:28;;;;;;;1.50;1.00;;;17.60;99.90;;;;;;4977725;28;20552;-83
2021/09/03 08:00:54;;;;;;;1.23;0.70;;;17.90;99.90;;;;;;4977594;28;20500;-83
2021/09/03 08:03:21;;;;;;;7.47;1.30;;;18.00;99.90;;;;;;4977986;28;20471;-83
2021/09/03 08:05:48;;;;;;;2.40;1.30;;;18.30;99.90;;;;;;4977326;28;20816;-83
2021/09/03 08:08:15;;;;;;;2.23;1.10;;;18.30;99.90;;;;;;4977566;28;20430;-83
2021/09/03 08:10:41;;;;;;;1.93;0.97;;;18.40;99.90;;;;;;4977784;28;20462;-83
2021/09/03 08:13:10;;;;;;;1.37;1.13;;;18.50;99.90;;;;;;4977662;28;20473;-83
2021/09/03 08:15:38;;;;;;;4.10;1.73;;;18.50;99.90;;;;;;4977483;28;20528;-83
2021/09/03 08:18:05;;;;;;;1.27;1.17;;;18.50;99.90;;;;;;4977055;28;21032;-82
2021/09/03 08:20:35;;;;;;;2.57;1.17;;;18.60;99.90;;;;;;4977167;28;20949;-83
2021/09/03 08:23:02;;;;;;;5.40;1.13;;;18.70;99.90;;;;;;4977386;28;20457;-83
2021/09/03 08:25:29;;;;;;;2.10;1.20;;;18.80;99.90;;;;;;4977479;28;20452;-83
2021/09/03 08:28:03;;;;;;;4.57;1.50;;;18.90;99.90;;;;;;4977238;28;20445;-83
2021/09/03 08:30:30;;;;;;;2.17;1.93;;;18.90;99.90;;;;;;4977129;28;20462;-83
2021/09/03 08:32:58;;;;;;;2.13;0.70;;;19.00;99.90;;;;;;4976939;28;20442;-83
2021/09/03 08:35:25;;;;;;;1.33;1.23;;;19.00;99.90;;;;;;4976645;28;20455;-83
2021/09/03 08:37:52;;;;;;;2.00;1.03;;;19.20;99.90;;;;;;4976289;28;20831;-84
2021/09/03 08:40:22;;;;;;;2.00;1.17;;;19.30;99.90;;;;;;4977062;28;20457;-83
2021/09/03 08:42:49;;;;;;;2.57;1.47;;;19.40;99.90;;;;;;4976877;28;20473;-84
2021/09/03 08:45:16;;;;;;;1.23;1.10;;;19.50;99.90;;;;;;4976962;28;20453;-84
2021/09/03 08:47:45;;;;;;;3.33;1.50;;;19.50;99.90;;;;;;4976659;28;20453;-82
2021/09/03 08:50:15;;;;;;;5.93;1.10;;;19.60;99.90;;;;;;4976560;28;20813;-83
2021/09/03 08:52:45;;;;;;;1.83;1.00;;;19.80;99.90;;;;;;4976477;28;20783;-84
2021/09/03 08:55:12;;;;;;;1.60;1.07;;;19.90;99.90;;;;;;4976534;28;20845;-84
2021/09/03 08:57:39;;;;;;;1.27;1.17;;;19.90;99.90;;;;;;4976609;28;20479;-83
2021/09/03 09:00:21;;;;;;;1.00;0.80;;;19.80;99.90;;;;;;4976890;28;20532;-83
2021/09/03 09:03:03;;;;;;;4.43;1.43;;;20.00;99.90;;;;;;4976470;28;20810;-83
2021/09/03 09:05:51;;;;;;;1.50;1.10;;;20.20;99.90;;;;;;4976525;28;21032;-81
2021/09/03 09:08:19;;;;;;;1.50;0.87;;;20.50;99.90;;;;;;4976469;28;20451;-82
2021/09/03 09:10:48;;;;;;;1.23;1.10;;;20.90;99.90;;;;;;4976412;28;20810;-82
2021/09/03 09:13:16;;;;;;;3.33;1.37;;;20.90;99.90;;;;;;4976060;28;20984;-81
2021/09/03 09:15:43;;;;;;;2.87;1.00;;;20.90;99.90;;;;;;4976154;28;20863;-83
2021/09/03 09:18:10;;;;;;;2.10;1.23;;;21.00;99.90;;;;;;4976336;28;20452;-83
2021/09/03 09:20:37;;;;;;;5.13;1.53;;;21.30;99.90;;;;;;4975951;28;20436;-83
2021/09/03 09:23:07;;;;;;;2.07;1.20;;;21.50;99.90;;;;;;4976081;28;20552;-83
2021/09/03 09:25:35;;;;;;;3.43;1.43;;;21.70;99.90;;;;;;4975886;28;20437;-83
2021/09/03 09:28:16;;;;;;;0.90;0.90;;;21.80;99.90;;;;;;4976078;28;20449;-84
2021/09/03 09:30:43;;;;;;;2.97;1.40;;;21.70;99.90;;;;;;4976021;28;20457;-83
2021/09/03 09:33:13;;;;;;;2.00;1.17;;;21.70;99.90;;;;;;4975990;28;20472;-83
2021/09/03 09:35:45;;;;;;;2.87;1.70;;;21.70;99.90;;;;;;4976018;28;20588;-83
2021/09/03 09:38:15;;;;;;;1.63;1.17;;;21.70;99.90;;;;;;4975776;28;20432;-83
2021/09/03 09:40:47;;;;;;;2.40;1.20;;;21.80;99.90;;;;;;4975919;28;20480;-83
2021/09/03 09:43:24;;;;;;;1.50;1.10;;;22.00;99.90;;;;;;4975435;28;20499;-83
2021/09/03 09:46:10;;;;;;;2.10;1.30;;;22.10;99.90;;;;;;4976580;28;20433;-83
2021/09/03 09:48:56;;;;;;;1.63;1.53;;;22.50;99.90;;;;;;4975349;28;20236;-82
2021/09/03 09:51:25;;;;;;;1.10;1.00;;;22.50;99.90;;;;;;4975514;28;20921;-83
2021/09/03 09:53:59;;;;;;;1.87;0.90;;;22.50;99.90;;;;;;4975742;28;20556;-83
2021/09/03 09:56:27;;;;;;;2.40;1.67;;;22.50;99.90;;;;;;4975595;28;20449;-83
2021/09/03 09:58:55;;;;;;;1.17;1.07;;;22.50;99.90;;;;;;4975424;28;20555;-83
2021/09/03 10:01:23;;;;;;;1.43;1.30;;;22.50;99.90;;;;;;4975188;28;20445;-83
2021/09/03 10:03:51;;;;;;;2.97;1.30;;;22.40;99.90;;;;;;4975251;28;20469;-83
2021/09/03 10:06:22;;;;;;;1.23;0.93;;;22.30;99.90;;;;;;4975628;28;20540;-83
2021/09/03 10:08:50;;;;;;;1.90;0.80;;;22.20;99.90;;;;;;4975559;28;20433;-83
2021/09/03 10:11:19;;;;;;;1.40;1.30;;;22.30;99.90;;;;;;4975442;28;20437;-82
2021/09/03 10:13:46;;;;;;;1.90;1.70;;;22.30;99.90;;;;;;4975026;28;20483;-82
2021/09/03 10:16:13;;;;;;;2.50;1.33;;;22.30;99.90;;;;;;4975030;28;21019;-83
2021/09/03 10:18:43;;;;;;;2.20;1.00;;;22.40;99.90;;;;;;4975730;28;20453;-84
2021/09/03 10:21:10;;;;;;;1.47;0.97;;;22.40;99.90;;;;;;4975824;28;20449;-83
2021/09/03 10:24:06;;;;;;;2.20;1.27;;;22.30;99.90;;;;;;4974740;28;21032;-83
2021/09/03 10:26:35;;;;;;;1.70;1.00;;;22.20;99.90;;;;;;4930614;28;20460;-83
2021/09/03 10:29:26;;;;;;;1.63;1.00;;;22.30;99.90;;;;;;4974802;28;20983;-83
2021/09/03 10:32:24;;;;;;;3.40;1.43;;;22.30;99.90;;;;;;4975023;28;20434;-84
2021/09/03 10:34:54;;;;;;;1.60;1.30;;;22.20;99.90;;;;;;4974877;28;20476;-83
2021/09/03 10:37:29;;;;;;;0.93;0.93;;;22.20;99.90;;;;;;4975460;28;20440;-83
2021/09/03 10:39:59;;;;;;;1.83;1.40;;;22.30;99.90;;;;;;4974975;28;20445;-83
2021/09/03 10:42:59;;;;;;;2.00;1.30;;;22.50;99.90;;;;;;4974826;28;20468;-83
2021/09/03 10:45:43;;;;;;;1.57;1.47;;;22.50;99.90;;;;;;4974922;28;20495;-83
2021/09/03 10:48:21;;;;;;;3.27;1.50;;;22.50;99.90;;;;;;4975143;28;20846;-83
2021/09/03 10:50:55;;;;;;;3.20;1.07;;;22.60;99.90;;;;;;4974905;28;20499;-84
2021/09/03 10:53:36;;;;;;;1.17;1.00;;;22.80;99.90;;;;;;4975324;28;20467;-83
2021/09/03 10:56:09;;;;;;;1.10;1.00;;;23.00;99.90;;;;;;4974357;28;20672;-83
2021/09/03 10:58:56;;;;;;;1.53;1.30;;;23.20;99.90;;;;;;4974574;28;20488;-84
2021/09/03 11:01:51;;;;;;;5.57;1.40;;;23.40;99.90;;;;;;4974734;28;20189;-84
2021/09/03 11:04:21;;;;;;;3.53;1.40;;;23.50;99.90;;;;;;4974771;28;20233;-84
2021/09/03 11:07:04;;;;;;;3.40;1.73;;;23.30;99.90;;;;;;4974602;28;20867;-85
2021/09/03 11:09:31;;;;;;;2.60;1.10;;;23.20;99.90;;;;;;4974804;28;20437;-85
2021/09/03 11:12:21;;;;;;;2.87;1.00;;;23.20;99.90;;;;;;4974674;28;20480;-84
2021/09/03 11:14:54;;;;;;;2.00;1.00;;;23.10;99.90;;;;;;5029367;23;20487;-83
2021/09/03 11:17:27;;;;;;;2.20;1.20;;;22.90;99.90;;;;;;4974793;28;20468;-83
2021/09/03 11:19:54;;;;;;;1.17;1.07;;;22.90;99.90;;;;;;4974730;28;20204;-82
2021/09/03 11:22:23;;;;;;;1.50;1.20;;;22.80;99.90;;;;;;4974641;28;20477;-82
2021/09/03 11:24:52;;;;;;;1.20;1.10;;;22.80;99.90;;;;;;4974390;28;20473;-83
2021/09/03 11:27:21;;;;;;;0.93;0.93;;;22.60;99.90;;;;;;4974387;28;20276;-82
2021/09/03 11:30:05;;;;;;;1.00;0.90;;;22.60;99.90;;;;;;4974488;28;20421;-84
2021/09/03 11:32:34;;;;;;;2.23;1.27;;;22.70;99.90;;;;;;4974478;28;20437;-82
2021/09/03 11:35:12;;;;;;;1.20;1.10;;;22.90;99.90;;;;;;4974353;28;20264;-83
2021/09/03 11:37:40;;;;;;;4.80;1.60;;;22.90;99.90;;;;;;4974437;28;20201;-83
2021/09/03 11:40:13;;;;;;;1.67;1.00;;;22.90;99.90;;;;;;4974027;28;20921;-82
2021/09/03 11:42:42;;;;;;;1.00;0.90;;;22.90;99.90;;;;;;4973942;28;20811;-83
2021/09/03 11:45:17;;;;;;;1.73;0.90;;;23.00;99.90;;;;;;4974029;28;20436;-84
2021/09/03 11:47:50;;;;;;;1.10;1.00;;;22.90;99.90;;;;;;4974271;28;20445;-82
2021/09/03 11:50:19;;;;;;;1.43;1.33;;;22.90;99.90;;;;;;4973977;28;20656;-83
2021/09/03 11:52:50;;;;;;;2.77;1.10;;;22.80;99.90;;;;;;4974206;28;20791;-83
2021/09/03 11:55:18;;;;;;;2.03;0.83;;;22.80;99.90;;;;;;4974162;28;20528;-83
2021/09/03 11:58:04;;;;;;;2.27;1.10;;;22.80;99.90;;;;;;4974317;28;20418;-83
2021/09/03 12:00:34;;;;;;;3.00;0.80;;;22.80;99.90;;;;;;4974846;28;20806;-82
2021/09/03 12:03:04;;;;;;;1.33;1.23;;;22.80;99.90;;;;;;4974752;28;20237;-83
2021/09/03 12:05:32;;;;;;;1.63;1.10;;;22.60;99.90;;;;;;4974996;28;20182;-83
2021/09/03 12:08:08;;;;;;;1.30;1.23;;;22.50;99.90;;;;;;4974156;28;20193;-83
2021/09/03 12:10:40;;;;;;;1.30;0.90;;;22.50;99.90;;;;;;4975192;28;20199;-82
2021/09/03 12:13:12;;;;;;;1.10;1.00;;;22.50;99.90;;;;;;4977333;28;20320;-84
2021/09/03 12:15:42;;;;;;;1.47;1.37;;;22.40;99.90;;;;;;4977123;28;21010;-83
2021/09/03 12:20:38;;;;;;;1.77;1.20;;;22.40;99.90;;;;;;4958215;29;20462;-89
2021/09/03 12:23:06;;;;;;;4.10;1.47;;;22.20;99.90;;;;;;4959475;29;20234;-90
2021/09/03 12:25:35;;;;;;;2.50;1.40;;;22.20;99.90;;;;;;4959282;29;20439;-90
2021/09/03 12:28:06;;;;;;;1.37;1.20;;;22.20;99.90;;;;;;4959955;29;20475;-90
2021/09/03 12:30:33;;;;;;;1.40;1.20;;;22.20;99.90;;;;;;4960042;29;20438;-90
2021/09/03 12:33:33;;;;;;;2.87;1.20;;;22.10;99.90;;;;;;4959051;29;20430;-90
2021/09/03 12:36:06;;;;;;;1.27;1.00;;;22.00;99.90;;;;;;4960473;29;20898;-90
2021/09/03 12:38:42;;;;;;;2.60;1.60;;;21.90;99.90;;;;;;4960024;29;20430;-90
2021/09/03 12:41:14;;;;;;;4.33;1.47;;;21.70;99.90;;;;;;4959680;29;20922;-90
2021/09/03 12:43:42;;;;;;;1.50;1.40;;;21.60;99.90;;;;;;4958889;29;20493;-90
2021/09/03 12:46:11;;;;;;;2.80;1.10;;;21.70;99.90;;;;;;4971003;29;20406;-87
2021/09/03 12:48:39;;;;;;;2.27;1.07;;;21.60;99.90;;;;;;4980439;28;20429;-88
2021/09/03 12:51:08;;;;;;;2.30;1.10;;;21.60;99.90;;;;;;4979954;28;20414;-90
2021/09/03 12:53:35;;;;;;;2.97;1.07;;;21.60;99.90;;;;;;4978447;28;20465;-89
2021/09/03 12:56:03;;;;;;;3.10;1.00;;;21.50;99.90;;;;;;4980862;28;20501;-91
2021/09/03 12:58:30;;;;;;;2.13;1.03;;;21.50;99.90;;;;;;4979369;28;20450;-89